Time;durP1;ratioP1;P1;durP2;ratioP2;P2;SDS_P1;SDS_P2;PMS_P1;PMS_P2;Temp;Humidity;BMP_temperature;BMP_pressure;BME280_temperature;BME280_humidity;BME280_pressure;Samples;Min_cycle;Max_cycle;Signal;HPM_P1;HPM_P2
2024/01/12 00:02:29;;;;;;;187.02;20.25;;;;;;;0.13;100.00;103395.13;10306517;28;20046;-59
2024/01/12 00:07:50;;;;;;;87.40;21.00;;;;;;;0.18;100.00;103389.50;10305007;28;20049;-59
2024/01/12 00:13:12;;;;;;;104.05;20.63;;;;;;;0.18;100.00;103394.59;10306993;28;20484;-60
2024/01/12 00:18:34;;;;;;;136.85;20.30;;;;;;;0.15;100.00;103398.63;10303305;28;20039;-59
2024/01/12 00:23:56;;;;;;;126.38;20.75;;;;;;;0.10;100.00;103390.75;10308080;28;20078;-58
2024/01/12 00:29:18;;;;;;;134.38;21.27;;;;;;;0.07;100.00;103395.69;10319864;28;20050;-59
2024/01/12 00:34:40;;;;;;;132.90;21.45;;;;;;;0.06;100.00;103393.91;10301458;28;20086;-59
2024/01/12 00:40:02;;;;;;;116.63;21.52;;;;;;;0.09;100.00;103406.81;10309037;28;20487;-59
2024/01/12 00:45:23;;;;;;;97.85;21.40;;;;;;;0.16;100.00;103395.28;10317595;23;20046;-65
2024/01/12 00:50:45;;;;;;;68.95;22.55;;;;;;;0.24;100.00;103389.78;10327635;28;20042;-64
2024/01/12 00:56:07;;;;;;;70.03;21.95;;;;;;;0.33;100.00;103390.28;10317177;28;20069;-62
2024/01/12 01:01:29;;;;;;;77.55;21.63;;;;;;;0.35;100.00;103388.69;10315556;28;20047;-63
2024/01/12 01:06:50;;;;;;;55.95;21.42;;;;;;;0.37;100.00;103386.22;10309310;28;20076;-63
2024/01/12 01:12:12;;;;;;;51.50;22.58;;;;;;;0.41;100.00;103395.78;10309983;28;20503;-63
2024/01/12 01:17:34;;;;;;;55.35;22.25;;;;;;;0.42;100.00;103390.75;10311102;28;20053;-62
2024/01/12 01:22:55;;;;;;;58.72;21.92;;;;;;;0.47;100.00;103389.34;10315102;28;20499;-62
2024/01/12 01:28:17;;;;;;;54.20;21.08;;;;;;;0.52;100.00;103370.09;10315592;28;20046;-63
2024/01/12 01:33:39;;;;;;;72.72;22.50;;;;;;;0.61;100.00;103365.47;10313879;28;20046;-63
2024/01/12 01:39:00;;;;;;;73.15;22.50;;;;;;;0.66;100.00;103371.66;10297296;28;20059;-63
2024/01/12 01:44:25;;;;;;;99.95;23.67;;;;;;;0.73;100.00;103381.34;10316016;28;20050;-62
2024/01/12 01:49:47;;;;;;;97.43;23.33;;;;;;;0.79;100.00;103390.97;10314566;28;20270;-65
2024/01/12 01:55:11;;;;;;;95.50;23.08;;;;;;;0.80;100.00;103396.19;10316314;28;20078;-63
2024/01/12 02:00:33;;;;;;;92.07;21.83;;;;;;;0.85;100.00;103384.53;10313261;28;20050;-63
2024/01/12 02:05:57;;;;;;;91.38;23.67;;;;;;;0.94;100.00;103384.13;10299752;28;20112;-63
2024/01/12 02:11:19;;;;;;;59.63;22.58;;;;;;;0.97;100.00;103374.94;10311361;28;20046;-63
2024/01/12 02:16:41;;;;;;;63.60;21.88;;;;;;;0.98;100.00;103361.44;10313061;28;20054;-63
2024/01/12 02:22:03;;;;;;;63.08;20.63;;;;;;;1.03;100.00;103364.19;10307214;28;20050;-63
2024/01/12 02:27:25;;;;;;;58.78;21.23;;;;;;;1.05;100.00;103365.13;10313649;28;20069;-63
2024/01/12 02:32:46;;;;;;;70.00;21.85;;;;;;;1.10;100.00;103360.28;10297896;28;20046;-63
2024/01/12 02:38:08;;;;;;;65.88;22.42;;;;;;;1.14;100.00;103344.31;10312066;28;20519;-63
2024/01/12 02:43:30;;;;;;;63.90;20.85;;;;;;;1.19;100.00;103353.09;10312929;28;20076;-63
2024/01/12 02:48:51;;;;;;;69.90;23.83;;;;;;;1.21;100.00;103338.75;10320037;28;20144;-63
2024/01/12 02:54:13;;;;;;;61.85;21.15;;;;;;;1.27;100.00;103328.81;10321043;28;20052;-63
2024/01/12 02:59:34;;;;;;;68.18;22.10;;;;;;;1.27;100.00;103314.41;10320346;28;20407;-63
2024/01/12 03:04:56;;;;;;;68.95;21.20;;;;;;;1.33;100.00;103311.28;10305664;28;20458;-63
2024/01/12 03:10:18;;;;;;;74.05;21.38;;;;;;;1.37;100.00;103315.72;10320140;28;20221;-63
2024/01/12 03:15:39;;;;;;;61.65;20.80;;;;;;;1.39;100.00;103298.81;10318974;28;20129;-62
2024/01/12 03:21:01;;;;;;;80.85;20.15;;;;;;;1.42;100.00;103304.94;10331725;28;20468;-63
2024/01/12 03:26:23;;;;;;;55.28;19.50;;;;;;;1.47;100.00;103297.47;10319824;28;20148;-63
2024/01/12 03:31:44;;;;;;;71.35;18.75;;;;;;;1.52;100.00;103290.94;10319115;28;20494;-63
2024/01/12 03:37:06;;;;;;;83.28;18.38;;;;;;;1.57;100.00;103284.38;10317024;28;20414;-62
2024/01/12 03:42:28;;;;;;;57.80;16.85;;;;;;;1.62;100.00;103282.88;10314832;28;20039;-63
2024/01/12 03:47:49;;;;;;;64.03;16.70;;;;;;;1.63;100.00;103277.84;10303504;28;20133;-63
2024/01/12 03:53:11;;;;;;;83.18;15.77;;;;;;;1.67;100.00;103266.09;10319871;28;20057;-63
2024/01/12 03:58:35;;;;;;;43.28;14.63;;;;;;;1.73;100.00;103258.72;10305664;28;20053;-63
2024/01/12 04:03:57;;;;;;;51.33;14.10;;;;;;;1.77;100.00;103265.72;10317249;28;20575;-63
2024/01/12 04:09:18;;;;;;;54.92;14.52;;;;;;;1.77;100.00;103268.28;10316929;28;20055;-63
2024/01/12 04:14:45;;;;;;;61.15;13.85;;;;;;;1.82;100.00;103271.91;10317860;28;20066;-63
2024/01/12 04:20:09;;;;;;;64.88;13.98;;;;;;;1.84;100.00;103272.84;10315378;28;20100;-63
2024/01/12 04:25:31;;;;;;;79.28;14.27;;;;;;;1.89;100.00;103289.22;10316636;28;20074;-63
2024/01/12 04:30:52;;;;;;;53.88;14.57;;;;;;;1.91;100.00;103282.53;10313035;28;20074;-63
2024/01/12 04:36:14;;;;;;;53.60;15.32;;;;;;;1.90;100.00;103260.38;10315252;28;20060;-63
2024/01/12 04:41:36;;;;;;;55.00;14.43;;;;;;;1.94;100.00;103252.06;10312237;28;20047;-63
2024/01/12 04:46:57;;;;;;;44.17;13.43;;;;;;;1.99;100.00;103250.56;10315806;28;20062;-63
2024/01/12 04:52:19;;;;;;;38.28;13.23;;;;;;;1.99;100.00;103235.25;10317822;28;20059;-63
2024/01/12 04:57:40;;;;;;;33.97;13.07;;;;;;;2.05;100.00;103233.81;10314397;28;20050;-63
2024/01/12 05:03:02;;;;;;;42.60;13.32;;;;;;;2.07;100.00;103228.78;10316435;28;20652;-63
2024/01/12 05:08:24;;;;;;;33.03;13.35;;;;;;;2.05;100.00;103240.63;10309936;28;20479;-63
2024/01/12 05:13:46;;;;;;;24.75;12.80;;;;;;;2.06;100.00;103237.25;10315161;28;20042;-63
2024/01/12 05:19:07;;;;;;;30.45;14.05;;;;;;;2.05;100.00;103235.53;10313575;28;20073;-63
2024/01/12 05:24:29;;;;;;;33.78;14.07;;;;;;;2.04;100.00;103228.66;10313587;28;20046;-63
2024/01/12 05:29:51;;;;;;;32.65;12.75;;;;;;;2.04;100.00;103221.00;10313216;28;20408;-63
2024/01/12 05:35:12;;;;;;;40.70;11.25;;;;;;;2.01;100.00;103221.72;10316744;28;20439;-63
2024/01/12 05:40:36;;;;;;;28.58;12.23;;;;;;;2.05;100.00;103231.28;10314160;28;20140;-63
2024/01/12 05:45:58;;;;;;;28.52;11.27;;;;;;;2.09;100.00;103227.16;10313796;28;20046;-63
2024/01/12 05:51:21;;;;;;;24.27;11.38;;;;;;;2.13;100.00;103220.50;10327619;28;20041;-62
2024/01/12 05:56:44;;;;;;;31.48;10.82;;;;;;;2.15;100.00;103217.22;10310873;28;20050;-63
2024/01/12 06:02:06;;;;;;;44.72;11.85;;;;;;;2.17;100.00;103220.72;10313734;28;20042;-63
2024/01/12 06:07:27;;;;;;;30.63;10.20;;;;;;;2.21;100.00;103212.38;10316571;28;20105;-64
2024/01/12 06:12:49;;;;;;;42.72;10.98;;;;;;;2.20;100.00;103210.63;10321442;28;20141;-64
2024/01/12 06:18:11;;;;;;;46.60;11.60;;;;;;;2.22;100.00;103214.13;10313956;28;20061;-64
2024/01/12 06:23:32;;;;;;;28.48;11.00;;;;;;;2.23;100.00;103205.66;10313126;28;20141;-64
2024/01/12 06:28:54;;;;;;;35.47;11.57;;;;;;;2.26;100.00;103210.88;10311806;28;20043;-64
2024/01/12 06:34:16;;;;;;;30.35;12.00;;;;;;;2.26;100.00;103202.34;10316923;28;20077;-63
2024/01/12 06:39:39;;;;;;;29.67;11.43;;;;;;;2.29;100.00;103200.78;10315914;28;20050;-64
2024/01/12 06:45:01;;;;;;;30.17;11.32;;;;;;;2.33;100.00;103186.47;10299492;28;20045;-64
2024/01/12 06:50:23;;;;;;;36.78;10.65;;;;;;;2.38;100.00;103203.72;10317660;28;20133;-64
2024/01/12 06:55:44;;;;;;;25.17;11.05;;;;;;;2.42;100.00;103203.06;10296388;28;20503;-65
2024/01/12 07:01:06;;;;;;;32.90;11.30;;;;;;;2.44;100.00;103206.53;10309022;28;20116;-64
2024/01/12 07:06:28;;;;;;;24.25;10.35;;;;;;;2.46;100.00;103209.16;10323651;28;20050;-64
2024/01/12 07:11:50;;;;;;;50.80;11.90;;;;;;;2.48;100.00;103207.53;10312154;28;20045;-64
2024/01/12 07:17:12;;;;;;;31.40;11.70;;;;;;;2.48;100.00;103210.97;10313245;28;20058;-64
2024/01/12 07:22:33;;;;;;;35.97;12.65;;;;;;;2.47;100.00;103196.44;10311807;28;20412;-64
2024/01/12 07:27:55;;;;;;;35.75;12.73;;;;;;;2.40;100.00;103193.59;10310322;28;20174;-65
2024/01/12 07:33:17;;;;;;;36.55;12.05;;;;;;;2.42;100.00;103190.28;10300363;28;20042;-65
2024/01/12 07:38:39;;;;;;;33.28;12.52;;;;;;;2.39;100.00;103184.16;10316917;28;20077;-64
2024/01/12 07:44:00;;;;;;;40.35;12.70;;;;;;;2.39;100.00;103172.28;10317367;28;20046;-65
2024/01/12 07:49:22;;;;;;;30.33;12.63;;;;;;;2.38;100.00;103170.53;10320895;28;20062;-65
2024/01/12 07:54:44;;;;;;;34.20;12.57;;;;;;;2.39;100.00;103174.84;10305690;28;20042;-64
2024/01/12 08:00:07;;;;;;;30.45;12.95;;;;;;;2.38;100.00;103185.84;10318330;28;20499;-65
2024/01/12 08:05:29;;;;;;;29.35;12.55;;;;;;;2.41;100.00;103190.22;10327649;28;20050;-64
2024/01/12 08:10:55;;;;;;;25.80;12.10;;;;;;;2.43;100.00;103184.38;10331785;28;20038;-65
2024/01/12 08:16:16;;;;;;;34.13;13.95;;;;;;;2.44;100.00;103181.00;10318911;28;20446;-65
2024/01/12 08:21:38;;;;;;;37.88;13.27;;;;;;;2.43;100.00;103184.38;10325596;28;20708;-64
2024/01/12 08:27:12;;;;;;;33.33;14.50;;;;;;;2.47;100.00;103186.22;10316391;28;20523;-64
2024/01/12 08:32:38;;;;;;;37.58;14.60;;;;;;;2.51;100.00;103183.00;10315736;28;20112;-64
2024/01/12 08:38:04;;;;;;;33.75;15.65;;;;;;;2.51;100.00;103177.88;10326382;28;20058;-64
2024/01/12 08:43:26;;;;;;;58.33;18.90;;;;;;;2.51;100.00;103183.00;10305539;28;20070;-64
2024/01/12 08:48:49;;;;;;;53.88;21.23;;;;;;;2.52;100.00;103179.63;10319858;28;20054;-65
2024/01/12 08:54:12;;;;;;;65.10;22.48;;;;;;;2.54;100.00;103178.03;10317972;28;20054;-65
2024/01/12 08:59:33;;;;;;;34.15;16.08;;;;;;;2.56;100.00;103161.06;10317298;28;20053;-65
2024/01/12 09:04:55;;;;;;;43.80;18.25;;;;;;;2.59;100.00;103150.97;10312975;28;20831;-64
2024/01/12 09:10:17;;;;;;;46.50;19.33;;;;;;;2.62;100.00;103145.13;10316574;28;20407;-64
2024/01/12 09:15:38;;;;;;;52.63;17.77;;;;;;;2.67;100.00;103136.81;10316959;28;20050;-65
2024/01/12 09:21:00;;;;;;;56.95;18.48;;;;;;;2.72;100.00;103122.53;10303256;28;20078;-64
2024/01/12 09:26:23;;;;;;;42.67;17.80;;;;;;;2.76;100.00;103113.28;10316556;28;20050;-64
2024/01/12 09:31:44;;;;;;;42.42;16.75;;;;;;;2.80;100.00;103115.16;10316836;28;20105;-65
2024/01/12 09:37:06;;;;;;;45.35;17.92;;;;;;;2.80;100.00;103110.91;10314673;28;20062;-64
2024/01/12 09:42:31;;;;;;;39.15;16.20;;;;;;;2.87;100.00;103127.34;10311875;28;20133;-65
2024/01/12 09:47:53;;;;;;;34.67;16.03;;;;;;;2.91;100.00;103109.63;10310865;28;20046;-65
2024/01/12 09:53:15;;;;;;;42.05;16.92;;;;;;;2.97;100.00;103101.31;10312322;28;20058;-65
2024/01/12 09:58:40;;;;;;;68.93;23.92;;;;;;;2.98;100.00;103106.47;10315176;28;20511;-65
2024/01/12 10:04:05;;;;;;;42.38;17.83;;;;;;;3.01;100.00;103121.06;10311375;28;20652;-65
2024/01/12 10:09:28;;;;;;;42.05;15.77;;;;;;;3.04;100.00;103110.94;10313593;28;20169;-65
2024/01/12 10:15:03;;;;;;;41.70;16.48;;;;;;;3.12;100.00;103113.78;10313846;28;20049;-65
2024/01/12 10:20:25;;;;;;;;;;;;;;;3.14;100.00;103117.28;10323070;28;20136;-65
2024/01/12 10:26:00;;;;;;;36.05;14.15;;;;;;;3.19;100.00;103115.78;10311023;28;20299;-66
2024/01/12 10:31:22;;;;;;;47.23;15.40;;;;;;;3.21;100.00;103111.56;10300587;28;20068;-65
2024/01/12 10:36:48;;;;;;;37.65;15.57;;;;;;;3.23;100.00;103117.63;10313144;28;20423;-66
2024/01/12 10:42:11;;;;;;;34.92;15.40;;;;;;;3.26;100.00;103104.97;10328033;28;20048;-66
2024/01/12 10:47:38;;;;;;;34.03;12.48;;;;;;;3.33;100.00;103117.16;10315460;28;20054;-66
2024/01/12 10:53:14;;;;;;;37.80;14.13;;;;;;;3.41;100.00;103100.38;10313236;28;20082;-66
2024/01/12 10:58:37;;;;;;;36.90;12.90;;;;;;;3.44;100.00;103088.59;10317752;28;20488;-65
2024/01/12 11:03:59;;;;;;;38.33;14.55;;;;;;;3.48;100.00;103090.41;10314128;28;20043;-65
2024/01/12 11:09:22;;;;;;;37.25;13.10;;;;;;;3.53;100.00;103080.34;10317544;28;20050;-65
2024/01/12 11:14:44;;;;;;;28.00;12.00;;;;;;;3.56;100.00;103073.66;10334345;28;20530;-65
2024/01/12 11:20:11;;;;;;;31.88;12.18;;;;;;;3.61;100.00;103056.75;10322870;28;20050;-65
2024/01/12 11:25:34;;;;;;;33.92;12.95;;;;;;;3.66;100.00;103054.38;10319086;28;20070;-65
2024/01/12 11:31:00;;;;;;;49.22;14.55;;;;;;;3.68;100.00;103050.19;10326143;28;20077;-65
2024/01/12 11:36:29;;;;;;;35.13;10.88;;;;;;;3.70;100.00;103035.75;10317709;28;20050;-65
2024/01/12 11:41:54;;;;;;;32.95;11.15;;;;;;;3.76;100.00;103041.03;10319822;28;20043;-66
2024/01/12 11:47:15;;;;;;;29.50;10.35;;;;;;;3.79;100.00;103036.03;10316586;28;20062;-66
2024/01/12 11:52:38;;;;;;;26.70;9.77;;;;;;;3.80;100.00;103028.41;10317887;28;20407;-66
2024/01/12 11:58:00;;;;;;;32.30;9.20;;;;;;;3.83;100.00;103010.56;10321504;28;20157;-66
2024/01/12 12:03:24;;;;;;;30.13;8.73;;;;;;;3.86;100.00;103012.38;10327267;28;20038;-65
2024/01/12 12:08:48;;;;;;;27.20;9.37;;;;;;;3.88;100.00;102997.94;10330753;28;20133;-66
2024/01/12 12:14:10;;;;;;;28.90;8.27;;;;;;;3.92;100.00;102992.06;10312723;28;20051;-66
2024/01/12 12:19:32;;;;;;;28.95;8.60;;;;;;;3.99;100.00;102988.91;10316052;28;20050;-66
2024/01/12 12:24:54;;;;;;;32.33;10.77;;;;;;;4.00;100.00;102988.06;10316222;28;20046;-66
2024/01/12 12:30:16;;;;;;;27.75;9.07;;;;;;;3.98;100.00;102974.34;10316386;28;20050;-65
2024/01/12 12:35:38;;;;;;;33.92;9.50;;;;;;;4.04;100.00;102987.34;10316157;28;20052;-66
2024/01/12 12:41:00;;;;;;;36.08;8.13;;;;;;;4.07;100.00;102983.19;10318584;28;20058;-66
2024/01/12 12:46:22;;;;;;;41.20;11.60;;;;;;;4.12;100.00;102973.06;10313702;28;20165;-66
2024/01/12 12:51:44;;;;;;;37.75;10.70;;;;;;;4.17;100.00;102978.34;10315082;28;20044;-65
2024/01/12 12:57:06;;;;;;;29.25;8.43;;;;;;;4.21;100.00;102969.94;10322056;28;20050;-66
2024/01/12 13:02:31;;;;;;;35.72;8.15;;;;;;;4.24;100.00;102949.53;10301047;28;20047;-66
2024/01/12 13:07:56;;;;;;;49.25;14.40;;;;;;;4.31;100.00;102934.38;10315951;28;20050;-66
2024/01/12 13:13:24;;;;;;;38.95;8.57;;;;;;;4.35;100.00;102946.47;10328029;28;20121;-66
2024/01/12 13:18:52;;;;;;;26.30;7.47;;;;;;;4.40;100.00;102936.34;10315215;28;20073;-66
2024/01/12 13:24:14;;;;;;;45.38;12.23;;;;;;;4.42;100.00;102945.81;10314241;28;20137;-66
2024/01/12 13:29:39;;;;;;;62.67;17.80;;;;;;;4.46;100.00;102934.84;10312234;28;20058;-66
2024/01/12 13:35:13;;;;;;;30.50;7.70;;;;;;;4.50;100.00;102939.25;10313986;28;20104;-66
2024/01/12 13:40:37;;;;;;;50.92;11.23;;;;;;;4.50;100.00;102926.41;10306419;28;20050;-66
2024/01/12 13:45:58;;;;;;;38.75;9.00;;;;;;;4.50;100.00;102934.09;10311022;28;20142;-66
2024/01/12 13:51:20;;;;;;;47.63;12.15;;;;;;;4.52;100.00;102927.34;10314431;28;20054;-66
2024/01/12 13:56:51;;;;;;;34.60;8.20;;;;;;;4.55;100.00;102922.28;10302797;28;20049;-66
2024/01/12 14:02:13;;;;;;;42.30;11.52;;;;;;;4.58;100.00;102914.66;10314675;28;20138;-66
2024/01/12 14:07:39;;;;;;;37.35;7.80;;;;;;;4.56;100.00;102910.34;10313268;28;20407;-66
2024/01/12 14:13:01;;;;;;;45.73;9.00;;;;;;;4.61;100.00;102907.09;10312977;28;20058;-66
2024/01/12 14:18:23;;;;;;;29.15;5.32;;;;;;;4.65;100.00;102914.00;10313510;28;20568;-66
2024/01/12 14:23:45;;;;;;;49.25;6.95;;;;;;;4.70;100.00;102907.34;10315297;28;20046;-66
2024/01/12 14:29:08;;;;;;;42.35;8.07;;;;;;;4.70;100.00;102907.34;10313008;28;20100;-66
2024/01/12 14:34:30;;;;;;;27.52;5.10;;;;;;;4.74;100.00;102898.88;10326102;28;20050;-66
2024/01/12 14:39:52;;;;;;;35.67;6.50;;;;;;;4.77;100.00;102890.41;10314939;28;20101;-66
2024/01/12 14:45:14;;;;;;;46.25;9.20;;;;;;;4.75;100.00;102887.81;10320533;28;20510;-66
2024/01/12 14:50:35;;;;;;;46.15;8.00;;;;;;;4.76;100.00;102886.97;10321755;28;20133;-66
2024/01/12 14:55:57;;;;;;;33.90;6.57;;;;;;;4.77;100.00;102885.28;10321988;28;20050;-66
2024/01/12 15:01:33;;;;;;;29.65;6.18;;;;;;;4.73;100.00;102876.63;10323924;28;20053;-67
2024/01/12 15:06:55;;;;;;;42.83;7.65;;;;;;;4.70;100.00;102897.09;10324094;28;20410;-67
2024/01/12 15:12:23;;;;;;;40.30;7.22;;;;;;;4.69;100.00;102897.00;10335286;28;20042;-67
2024/01/12 15:17:45;;;;;;;37.60;6.90;;;;;;;4.69;100.00;102899.56;10335234;28;20081;-66
2024/01/12 15:23:16;;;;;;;91.75;16.90;;;;;;;4.65;100.00;102887.53;10321206;28;20133;-66
2024/01/12 15:28:38;;;;;;;64.30;11.98;;;;;;;4.65;100.00;102896.06;10320178;28;20069;-66
2024/01/12 15:34:09;;;;;;;64.72;14.05;;;;;;;4.62;100.00;102879.72;10321536;28;20509;-66
2024/01/12 15:46:14;;;;;;;43.55;8.20;;;;;;;4.58;100.00;102860.84;10316467;28;20065;-66
2024/01/12 15:51:37;;;;;;;36.53;6.45;;;;;;;4.56;100.00;102867.63;10318725;28;20057;-66
2024/01/12 15:56:59;;;;;;;90.35;18.05;;;;;;;4.57;100.00;102876.19;10320921;28;20133;-66
2024/01/12 16:02:21;;;;;;;61.67;13.35;;;;;;;4.57;100.00;102873.63;10335404;28;20054;-67
2024/01/12 16:07:42;;;;;;;48.72;12.23;;;;;;;4.57;100.00;102871.06;10318358;28;20475;-67
2024/01/12 16:13:05;;;;;;;30.67;5.60;;;;;;;4.57;100.00;102864.25;10317044;28;20138;-67
2024/01/12 16:18:26;;;;;;;36.05;7.38;;;;;;;4.58;100.00;102855.72;10317405;28;20086;-67
2024/01/12 16:23:48;;;;;;;52.83;14.30;;;;;;;4.58;100.00;102865.97;10321706;28;20046;-67
2024/01/12 16:29:10;;;;;;;58.33;12.90;;;;;;;4.58;100.00;102871.09;10327516;28;20067;-66
2024/01/12 16:34:32;;;;;;;66.88;20.65;;;;;;;4.55;100.00;102865.03;10317343;28;20606;-66
2024/01/12 16:39:54;;;;;;;53.80;11.63;;;;;;;4.60;100.00;102864.31;10317632;28;20059;-66
2024/01/12 16:45:15;;;;;;;107.68;23.67;;;;;;;4.57;100.00;102864.25;10316346;28;20133;-67
2024/01/12 16:50:37;;;;;;;61.85;14.13;;;;;;;4.61;100.00;102860.06;10319491;28;20057;-67
2024/01/12 16:55:59;;;;;;;42.35;7.95;;;;;;;4.62;100.00;102862.66;10301781;28;20050;-67
2024/01/12 17:01:24;;;;;;;32.88;6.65;;;;;;;4.60;100.00;102869.44;10316740;28;20563;-67
2024/01/12 17:06:52;;;;;;;47.28;10.98;;;;;;;4.58;100.00;102860.84;10313477;28;20046;-67
2024/01/12 17:12:13;;;;;;;48.50;15.70;;;;;;;4.55;100.00;102865.91;10315427;28;20050;-67
2024/01/12 17:17:35;;;;;;;42.95;10.73;;;;;;;4.53;100.00;102864.97;10315275;28;20502;-67
2024/01/12 17:22:57;;;;;;;37.28;10.32;;;;;;;4.53;100.00;102857.28;10315809;28;20603;-67
2024/01/12 17:28:19;;;;;;;39.55;7.72;;;;;;;4.51;100.00;102858.94;10310489;28;20164;-67
2024/01/12 17:33:41;;;;;;;44.85;11.68;;;;;;;4.47;100.00;102846.88;10315327;28;20057;-67
2024/01/12 17:39:02;;;;;;;45.05;10.15;;;;;;;4.51;100.00;102861.50;10314304;28;20120;-67
2024/01/12 17:44:24;;;;;;;40.97;9.30;;;;;;;4.53;100.00;102847.03;10315595;28;20061;-67
2024/01/12 17:49:46;;;;;;;33.13;10.27;;;;;;;4.52;100.00;102840.19;10312456;28;20124;-67
2024/01/12 17:55:08;;;;;;;38.28;12.43;;;;;;;4.50;100.00;102839.28;10314534;28;20450;-67
2024/01/12 18:00:30;;;;;;;40.28;12.63;;;;;;;4.48;100.00;102843.50;10314199;28;20052;-67
2024/01/12 18:05:51;;;;;;;30.90;7.75;;;;;;;4.49;100.00;102840.09;10313907;28;20053;-67
2024/01/12 18:11:13;;;;;;;39.67;10.30;;;;;;;4.49;100.00;102832.41;10314863;28;20148;-67
2024/01/12 18:16:35;;;;;;;36.85;7.25;;;;;;;4.50;100.00;102830.72;10314377;28;20104;-67
2024/01/12 18:21:56;;;;;;;34.63;8.20;;;;;;;4.50;100.00;102826.47;10312972;28;20044;-67
2024/01/12 18:27:22;;;;;;;31.05;6.85;;;;;;;4.51;100.00;102827.31;10301403;28;20105;-67
2024/01/12 18:32:44;;;;;;;;;;;;;;;4.51;100.00;102817.94;10313462;28;20074;-66
2024/01/12 18:38:06;;;;;;;42.28;12.00;;;;;;;4.52;100.00;102814.56;10314044;28;19922;-66
2024/01/12 18:43:27;;;;;;;38.80;11.23;;;;;;;4.51;100.00;102817.94;10313479;28;20479;-66
2024/01/12 18:48:49;;;;;;;33.55;8.35;;;;;;;4.49;100.00;102819.59;10312724;28;20046;-67
2024/01/12 18:54:15;;;;;;;64.68;13.23;;;;;;;4.47;100.00;102821.22;10300906;28;20058;-67
2024/01/12 18:59:37;;;;;;;33.33;6.78;;;;;;;4.44;100.00;102810.91;10313590;28;20054;-67
2024/01/12 19:04:59;;;;;;;42.58;8.85;;;;;;;4.46;100.00;102809.25;10299828;28;20059;-67
2024/01/12 19:10:21;;;;;;;60.50;12.88;;;;;;;4.46;100.00;102806.69;10313869;28;20076;-67
2024/01/12 19:15:42;;;;;;;36.80;7.93;;;;;;;4.46;100.00;102808.38;10297704;28;20091;-67
2024/01/12 19:21:04;;;;;;;28.02;6.88;;;;;;;4.37;100.00;102798.78;10308215;28;20125;-67
2024/01/12 19:26:26;;;;;;;41.83;9.38;;;;;;;4.37;100.00;102796.22;10305938;28;20123;-67
2024/01/12 19:31:50;;;;;;;38.72;8.48;;;;;;;4.41;100.00;102804.84;10323403;28;20050;-65
2024/01/12 19:37:12;;;;;;;81.28;18.42;;;;;;;4.35;100.00;102810.66;10325984;28;20506;-65
2024/01/12 19:42:33;;;;;;;61.95;13.75;;;;;;;4.33;100.00;102802.06;10328090;28;20430;-66
2024/01/12 19:47:55;;;;;;;31.58;8.40;;;;;;;4.30;100.00;102796.88;10303051;28;20050;-66
2024/01/12 19:53:17;;;;;;;40.38;9.45;;;;;;;4.30;100.00;102802.00;10306004;28;20503;-65
2024/01/12 19:58:39;;;;;;;38.38;9.93;;;;;;;4.31;100.00;102780.66;10305790;28;20056;-65
2024/01/12 20:04:02;;;;;;;86.50;19.30;;;;;;;4.34;100.00;102788.41;10311440;28;20141;-65
2024/01/12 20:09:24;;;;;;;101.78;24.88;;;;;;;4.34;100.00;102777.31;10309614;28;20105;-65
2024/01/12 20:14:46;;;;;;;31.90;9.10;;;;;;;4.34;100.00;102778.16;10296519;28;20046;-65
2024/01/12 20:20:08;;;;;;;25.20;6.88;;;;;;;4.33;100.00;102770.44;10313060;28;20061;-64
2024/01/12 20:25:30;;;;;;;58.80;17.05;;;;;;;4.32;100.00;102763.59;10320679;28;20113;-65
2024/01/12 20:30:51;;;;;;;44.38;14.73;;;;;;;4.29;100.00;102764.38;10311353;28;20051;-65
2024/01/12 20:36:17;;;;;;;19.30;6.28;;;;;;;4.32;100.00;102768.72;10309495;28;20042;-66
2024/01/12 20:41:39;;;;;;;48.20;15.20;;;;;;;4.27;100.00;102760.91;10311467;28;20568;-65
2024/01/12 20:47:01;;;;;;;33.45;10.80;;;;;;;4.29;100.00;102760.94;10310100;28;20042;-65
2024/01/12 20:52:23;;;;;;;53.95;17.50;;;;;;;4.30;100.00;102766.13;10320726;28;20074;-64
2024/01/12 20:57:46;;;;;;;43.92;16.05;;;;;;;4.31;100.00;102756.72;10305756;28;20443;-64
2024/01/12 21:03:07;;;;;;;18.33;6.55;;;;;;;4.28;100.00;102742.16;10306927;28;21007;-65
2024/01/12 21:08:29;;;;;;;19.13;7.00;;;;;;;4.27;100.00;102740.41;10302369;28;20061;-65
2024/01/12 21:13:51;;;;;;;23.70;8.30;;;;;;;4.25;100.00;102726.69;10305456;28;20582;-65
2024/01/12 21:19:12;;;;;;;18.25;8.38;;;;;;;4.29;100.00;102732.75;10314408;28;20145;-64
2024/01/12 21:24:34;;;;;;;13.50;7.32;;;;;;;4.23;100.00;102738.56;10314160;28;20093;-64
2024/01/12 21:29:56;;;;;;;20.73;7.90;;;;;;;4.24;100.00;102724.09;10310586;28;20097;-65
2024/01/12 21:35:18;;;;;;;28.73;11.98;;;;;;;4.22;100.00;102720.63;10314149;28;20050;-64
2024/01/12 21:40:39;;;;;;;31.75;11.75;;;;;;;4.22;100.00;102713.81;10308570;28;20480;-64
2024/01/12 21:46:01;;;;;;;15.85;8.07;;;;;;;4.17;100.00;102702.56;10307558;28;20487;-64
2024/01/12 21:51:23;;;;;;;17.00;7.95;;;;;;;4.16;100.00;102705.94;10313121;28;20046;-64
2024/01/12 21:56:44;;;;;;;19.52;9.00;;;;;;;4.14;100.00;102710.16;10308297;28;20055;-64
2024/01/12 22:02:06;;;;;;;44.42;18.95;;;;;;;4.06;100.00;102698.88;10305516;28;20058;-65
2024/01/12 22:07:27;;;;;;;17.42;8.68;;;;;;;4.10;100.00;102698.13;10306048;28;20035;-65
2024/01/12 22:12:51;;;;;;;19.42;9.73;;;;;;;4.10;100.00;102693.00;10309336;28;20630;-65
2024/01/12 22:18:13;;;;;;;28.92;15.60;;;;;;;4.09;100.00;102688.69;10306494;28;20068;-65
2024/01/12 22:23:35;;;;;;;43.20;18.25;;;;;;;4.10;100.00;102690.44;10310625;28;20042;-65
2024/01/12 22:28:57;;;;;;;15.65;8.73;;;;;;;4.10;100.00;102687.88;10302621;28;20065;-65
2024/01/12 22:34:18;;;;;;;29.15;18.55;;;;;;;4.14;100.00;102676.88;10310264;28;20053;-65
2024/01/12 22:39:40;;;;;;;14.48;9.52;;;;;;;4.13;100.00;102675.16;10310021;28;20081;-65
2024/01/12 22:45:02;;;;;;;18.58;10.52;;;;;;;4.13;100.00;102664.03;10306157;28;20046;-65
2024/01/12 22:50:23;;;;;;;12.43;7.50;;;;;;;4.17;100.00;102656.47;10304434;28;20522;-64
2024/01/12 22:55:45;;;;;;;11.55;6.60;;;;;;;4.18;100.00;102657.31;10308262;28;20042;-64
2024/01/12 23:01:07;;;;;;;9.50;5.75;;;;;;;4.18;100.00;102647.94;10303695;28;20054;-65
2024/01/12 23:06:29;;;;;;;11.57;5.97;;;;;;;4.16;100.00;102639.34;10309923;28;20050;-65
2024/01/12 23:11:51;;;;;;;9.35;5.20;;;;;;;4.16;100.00;102638.50;10310429;28;20459;-65
2024/01/12 23:17:13;;;;;;;13.35;9.23;;;;;;;4.17;100.00;102629.97;10322451;28;20558;-65
2024/01/12 23:22:35;;;;;;;11.05;6.00;;;;;;;4.17;100.00;102625.72;10310467;28;20057;-65
2024/01/12 23:27:56;;;;;;;8.27;5.13;;;;;;;4.16;100.00;102612.91;10313414;28;20054;-65
2024/01/12 23:33:18;;;;;;;9.32;4.85;;;;;;;4.19;100.00;102605.28;10295916;28;20054;-65
2024/01/12 23:38:40;;;;;;;10.48;5.15;;;;;;;4.21;100.00;102594.25;10314196;28;20065;-64
2024/01/12 23:44:02;;;;;;;9.38;4.75;;;;;;;4.20;100.00;102589.94;10296523;28;20042;-64
2024/01/12 23:49:24;;;;;;;9.35;5.00;;;;;;;4.19;100.00;102588.22;10314737;28;20060;-64
2024/01/12 23:54:46;;;;;;;8.00;4.50;;;;;;;4.18;100.00;102594.16;10307329;28;20046;-66
